sensor_id;sensor_type;location;lat;lon;timestamp;P1;durP1;ratioP1;P2;durP2;ratioP2
72085;SDS011;64750;52.134;5.424;2023-08-06T00:00:30;4.45;;;3.78;;
72085;SDS011;64750;52.134;5.424;2023-08-06T00:02:56;4.20;;;3.80;;
72085;SDS011;64750;52.134;5.424;2023-08-06T00:05:23;5.07;;;4.40;;
72085;SDS011;64750;52.134;5.424;2023-08-06T00:07:50;4.43;;;4.13;;
72085;SDS011;64750;52.134;5.424;2023-08-06T00:10:17;4.33;;;3.90;;
72085;SDS011;64750;52.134;5.424;2023-08-06T00:12:43;8.55;;;4.82;;
72085;SDS011;64750;52.134;5.424;2023-08-06T00:15:11;5.28;;;4.35;;
72085;SDS011;64750;52.134;5.424;2023-08-06T00:17:38;5.70;;;4.43;;
72085;SDS011;64750;52.134;5.424;2023-08-06T00:20:05;4.65;;;4.25;;
72085;SDS011;64750;52.134;5.424;2023-08-06T00:22:33;5.10;;;4.60;;
72085;SDS011;64750;52.134;5.424;2023-08-06T00:25:01;5.80;;;4.13;;
72085;SDS011;64750;52.134;5.424;2023-08-06T00:27:28;4.55;;;3.97;;
72085;SDS011;64750;52.134;5.424;2023-08-06T00:29:55;4.50;;;4.10;;
72085;SDS011;64750;52.134;5.424;2023-08-06T00:32:21;4.68;;;4.28;;
72085;SDS011;64750;52.134;5.424;2023-08-06T00:34:48;6.03;;;4.77;;
72085;SDS011;64750;52.134;5.424;2023-08-06T00:37:17;4.90;;;4.25;;
72085;SDS011;64750;52.134;5.424;2023-08-06T00:39:44;4.80;;;4.07;;
72085;SDS011;64750;52.134;5.424;2023-08-06T00:42:11;4.97;;;4.63;;
72085;SDS011;64750;52.134;5.424;2023-08-06T00:44:38;5.13;;;4.63;;
72085;SDS011;64750;52.134;5.424;2023-08-06T00:47:05;5.93;;;4.77;;
72085;SDS011;64750;52.134;5.424;2023-08-06T00:49:34;5.00;;;4.50;;
72085;SDS011;64750;52.134;5.424;2023-08-06T00:52:02;4.25;;;3.95;;
72085;SDS011;64750;52.134;5.424;2023-08-06T00:54:30;4.35;;;3.97;;
72085;SDS011;64750;52.134;5.424;2023-08-06T00:56:58;4.82;;;4.47;;
72085;SDS011;64750;52.134;5.424;2023-08-06T00:59:28;4.47;;;4.07;;
72085;SDS011;64750;52.134;5.424;2023-08-06T01:01:56;5.07;;;4.30;;
72085;SDS011;64750;52.134;5.424;2023-08-06T01:04:23;5.85;;;4.80;;
72085;SDS011;64750;52.134;5.424;2023-08-06T01:07:02;4.97;;;4.57;;
72085;SDS011;64750;52.134;5.424;2023-08-06T01:12:27;5.83;;;4.47;;
72085;SDS011;64750;52.134;5.424;2023-08-06T01:14:58;5.55;;;5.05;;
72085;SDS011;64750;52.134;5.424;2023-08-06T01:17:30;5.18;;;4.60;;
72085;SDS011;64750;52.134;5.424;2023-08-06T01:19:57;4.65;;;4.32;;
72085;SDS011;64750;52.134;5.424;2023-08-06T01:22:23;5.90;;;5.40;;
72085;SDS011;64750;52.134;5.424;2023-08-06T01:24:50;5.27;;;4.90;;
72085;SDS011;64750;52.134;5.424;2023-08-06T01:27:32;5.82;;;5.25;;
72085;SDS011;64750;52.134;5.424;2023-08-06T01:30:17;5.72;;;5.22;;
72085;SDS011;64750;52.134;5.424;2023-08-06T01:32:49;6.13;;;5.00;;
72085;SDS011;64750;52.134;5.424;2023-08-06T01:35:19;5.57;;;4.50;;
72085;SDS011;64750;52.134;5.424;2023-08-06T01:37:47;7.60;;;4.60;;
72085;SDS011;64750;52.134;5.424;2023-08-06T01:40:14;5.50;;;4.95;;
72085;SDS011;64750;52.134;5.424;2023-08-06T01:42:41;5.28;;;4.82;;
72085;SDS011;64750;52.134;5.424;2023-08-06T01:45:07;6.00;;;5.50;;
72085;SDS011;64750;52.134;5.424;2023-08-06T01:47:35;5.63;;;5.18;;
72085;SDS011;64750;52.134;5.424;2023-08-06T01:50:02;5.73;;;5.30;;
72085;SDS011;64750;52.134;5.424;2023-08-06T01:52:29;7.50;;;6.15;;
72085;SDS011;64750;52.134;5.424;2023-08-06T01:54:55;8.55;;;5.50;;
72085;SDS011;64750;52.134;5.424;2023-08-06T01:57:22;6.10;;;5.50;;
72085;SDS011;64750;52.134;5.424;2023-08-06T01:59:49;6.75;;;6.15;;
72085;SDS011;64750;52.134;5.424;2023-08-06T02:02:15;6.23;;;5.63;;
72085;SDS011;64750;52.134;5.424;2023-08-06T02:04:41;6.47;;;5.65;;
72085;SDS011;64750;52.134;5.424;2023-08-06T02:07:08;6.20;;;5.60;;
72085;SDS011;64750;52.134;5.424;2023-08-06T02:09:35;6.82;;;6.32;;
72085;SDS011;64750;52.134;5.424;2023-08-06T02:12:01;6.07;;;5.57;;
72085;SDS011;64750;52.134;5.424;2023-08-06T02:14:28;6.97;;;6.13;;
72085;SDS011;64750;52.134;5.424;2023-08-06T02:16:55;8.15;;;6.30;;
72085;SDS011;64750;52.134;5.424;2023-08-06T02:19:21;7.00;;;6.28;;
72085;SDS011;64750;52.134;5.424;2023-08-06T02:21:48;7.43;;;6.72;;
72085;SDS011;64750;52.134;5.424;2023-08-06T02:24:14;7.30;;;6.60;;
72085;SDS011;64750;52.134;5.424;2023-08-06T02:26:41;6.53;;;6.03;;
72085;SDS011;64750;52.134;5.424;2023-08-06T02:29:07;6.90;;;6.32;;
72085;SDS011;64750;52.134;5.424;2023-08-06T02:31:34;7.45;;;6.70;;
72085;SDS011;64750;52.134;5.424;2023-08-06T02:34:00;8.10;;;7.15;;
72085;SDS011;64750;52.134;5.424;2023-08-06T02:36:27;7.65;;;6.95;;
72085;SDS011;64750;52.134;5.424;2023-08-06T02:38:55;6.97;;;6.27;;
72085;SDS011;64750;52.134;5.424;2023-08-06T02:41:22;6.72;;;5.47;;
72085;SDS011;64750;52.134;5.424;2023-08-06T02:43:48;8.52;;;6.97;;
72085;SDS011;64750;52.134;5.424;2023-08-06T02:46:15;6.50;;;5.90;;
72085;SDS011;64750;52.134;5.424;2023-08-06T02:48:41;6.68;;;6.18;;
72085;SDS011;64750;52.134;5.424;2023-08-06T02:51:08;5.73;;;5.30;;
72085;SDS011;64750;52.134;5.424;2023-08-06T02:53:34;6.57;;;5.97;;
72085;SDS011;64750;52.134;5.424;2023-08-06T02:56:01;7.50;;;5.78;;
72085;SDS011;64750;52.134;5.424;2023-08-06T02:58:27;5.68;;;5.15;;
72085;SDS011;64750;52.134;5.424;2023-08-06T03:01:00;6.85;;;5.55;;
72085;SDS011;64750;52.134;5.424;2023-08-06T03:03:31;5.40;;;4.70;;
72085;SDS011;64750;52.134;5.424;2023-08-06T03:05:58;5.60;;;5.10;;
72085;SDS011;64750;52.134;5.424;2023-08-06T03:08:24;6.75;;;5.53;;
72085;SDS011;64750;52.134;5.424;2023-08-06T03:10:52;5.47;;;4.97;;
72085;SDS011;64750;52.134;5.424;2023-08-06T03:13:18;5.22;;;4.88;;
72085;SDS011;64750;52.134;5.424;2023-08-06T03:18:23;5.00;;;4.60;;
72085;SDS011;64750;52.134;5.424;2023-08-06T03:20:51;5.55;;;5.05;;
72085;SDS011;64750;52.134;5.424;2023-08-06T03:23:19;5.80;;;4.60;;
72085;SDS011;64750;52.134;5.424;2023-08-06T03:25:45;5.43;;;5.03;;
72085;SDS011;64750;52.134;5.424;2023-08-06T03:28:12;5.63;;;5.13;;
72085;SDS011;64750;52.134;5.424;2023-08-06T03:30:39;5.93;;;5.53;;
72085;SDS011;64750;52.134;5.424;2023-08-06T03:33:05;4.82;;;4.53;;
72085;SDS011;64750;52.134;5.424;2023-08-06T03:35:32;5.32;;;4.93;;
72085;SDS011;64750;52.134;5.424;2023-08-06T03:37:58;5.03;;;4.63;;
72085;SDS011;64750;52.134;5.424;2023-08-06T03:40:25;5.57;;;5.07;;
72085;SDS011;64750;52.134;5.424;2023-08-06T03:42:51;6.13;;;5.72;;
72085;SDS011;64750;52.134;5.424;2023-08-06T03:45:18;6.47;;;5.97;;
72085;SDS011;64750;52.134;5.424;2023-08-06T03:47:44;6.60;;;6.10;;
72085;SDS011;64750;52.134;5.424;2023-08-06T03:50:11;6.30;;;5.55;;
72085;SDS011;64750;52.134;5.424;2023-08-06T03:52:37;6.53;;;6.03;;
72085;SDS011;64750;52.134;5.424;2023-08-06T03:55:04;6.95;;;6.35;;
72085;SDS011;64750;52.134;5.424;2023-08-06T03:57:30;7.28;;;6.68;;
72085;SDS011;64750;52.134;5.424;2023-08-06T03:59:57;7.25;;;6.72;;
72085;SDS011;64750;52.134;5.424;2023-08-06T04:02:23;6.65;;;6.00;;
72085;SDS011;64750;52.134;5.424;2023-08-06T04:04:50;6.73;;;6.23;;
72085;SDS011;64750;52.134;5.424;2023-08-06T04:07:19;6.63;;;6.13;;
72085;SDS011;64750;52.134;5.424;2023-08-06T04:09:56;7.43;;;6.72;;
72085;SDS011;64750;52.134;5.424;2023-08-06T04:12:24;7.25;;;6.75;;
72085;SDS011;64750;52.134;5.424;2023-08-06T04:14:51;7.85;;;7.15;;
72085;SDS011;64750;52.134;5.424;2023-08-06T04:17:18;8.23;;;7.53;;
72085;SDS011;64750;52.134;5.424;2023-08-06T04:19:52;7.82;;;7.15;;
72085;SDS011;64750;52.134;5.424;2023-08-06T04:22:19;8.93;;;7.25;;
72085;SDS011;64750;52.134;5.424;2023-08-06T04:24:46;8.07;;;7.47;;
72085;SDS011;64750;52.134;5.424;2023-08-06T04:27:14;8.85;;;8.05;;
72085;SDS011;64750;52.134;5.424;2023-08-06T04:29:41;9.03;;;8.13;;
72085;SDS011;64750;52.134;5.424;2023-08-06T04:32:09;8.50;;;7.55;;
72085;SDS011;64750;52.134;5.424;2023-08-06T04:34:36;8.27;;;7.60;;
72085;SDS011;64750;52.134;5.424;2023-08-06T04:37:03;9.32;;;8.43;;
72085;SDS011;64750;52.134;5.424;2023-08-06T04:39:30;8.95;;;8.10;;
72085;SDS011;64750;52.134;5.424;2023-08-06T04:41:57;8.87;;;8.00;;
72085;SDS011;64750;52.134;5.424;2023-08-06T04:44:23;9.38;;;8.48;;
72085;SDS011;64750;52.134;5.424;2023-08-06T04:46:50;10.00;;;9.05;;
72085;SDS011;64750;52.134;5.424;2023-08-06T04:49:17;9.25;;;8.45;;
72085;SDS011;64750;52.134;5.424;2023-08-06T04:51:44;9.57;;;8.68;;
72085;SDS011;64750;52.134;5.424;2023-08-06T04:54:10;9.67;;;8.73;;
72085;SDS011;64750;52.134;5.424;2023-08-06T04:56:37;10.40;;;9.23;;
72085;SDS011;64750;52.134;5.424;2023-08-06T04:59:03;10.40;;;9.30;;
72085;SDS011;64750;52.134;5.424;2023-08-06T05:01:30;10.50;;;9.40;;
72085;SDS011;64750;52.134;5.424;2023-08-06T05:03:56;10.27;;;9.27;;
72085;SDS011;64750;52.134;5.424;2023-08-06T05:06:23;11.33;;;9.07;;
72085;SDS011;64750;52.134;5.424;2023-08-06T05:08:49;10.60;;;9.50;;
72085;SDS011;64750;52.134;5.424;2023-08-06T05:11:15;10.93;;;9.93;;
72085;SDS011;64750;52.134;5.424;2023-08-06T05:13:42;10.93;;;9.82;;
72085;SDS011;64750;52.134;5.424;2023-08-06T05:16:08;11.00;;;10.10;;
72085;SDS011;64750;52.134;5.424;2023-08-06T05:18:35;11.47;;;10.37;;
72085;SDS011;64750;52.134;5.424;2023-08-06T05:21:04;10.63;;;9.60;;
72085;SDS011;64750;52.134;5.424;2023-08-06T05:23:31;11.60;;;10.60;;
72085;SDS011;64750;52.134;5.424;2023-08-06T05:25:57;11.43;;;9.98;;
72085;SDS011;64750;52.134;5.424;2023-08-06T05:28:24;11.85;;;10.85;;
72085;SDS011;64750;52.134;5.424;2023-08-06T05:30:50;11.33;;;10.33;;
72085;SDS011;64750;52.134;5.424;2023-08-06T05:33:17;11.45;;;10.15;;
72085;SDS011;64750;52.134;5.424;2023-08-06T05:35:43;11.65;;;10.52;;
72085;SDS011;64750;52.134;5.424;2023-08-06T05:38:10;13.77;;;10.98;;
72085;SDS011;64750;52.134;5.424;2023-08-06T05:40:36;13.25;;;10.15;;
72085;SDS011;64750;52.134;5.424;2023-08-06T05:43:03;12.07;;;10.90;;
72085;SDS011;64750;52.134;5.424;2023-08-06T05:45:29;11.73;;;10.55;;
72085;SDS011;64750;52.134;5.424;2023-08-06T05:47:56;12.05;;;10.60;;
72085;SDS011;64750;52.134;5.424;2023-08-06T05:50:24;11.48;;;10.38;;
72085;SDS011;64750;52.134;5.424;2023-08-06T05:52:51;11.02;;;10.00;;
72085;SDS011;64750;52.134;5.424;2023-08-06T05:55:18;11.10;;;10.20;;
72085;SDS011;64750;52.134;5.424;2023-08-06T05:57:46;12.55;;;11.35;;
72085;SDS011;64750;52.134;5.424;2023-08-06T06:00:12;11.07;;;10.00;;
72085;SDS011;64750;52.134;5.424;2023-08-06T06:02:39;12.05;;;10.85;;
72085;SDS011;64750;52.134;5.424;2023-08-06T06:05:05;11.20;;;10.18;;
72085;SDS011;64750;52.134;5.424;2023-08-06T06:07:32;11.97;;;10.90;;
72085;SDS011;64750;52.134;5.424;2023-08-06T06:09:59;11.77;;;10.68;;
72085;SDS011;64750;52.134;5.424;2023-08-06T06:12:25;11.38;;;10.20;;
72085;SDS011;64750;52.134;5.424;2023-08-06T06:14:52;11.00;;;10.10;;
72085;SDS011;64750;52.134;5.424;2023-08-06T06:17:19;12.80;;;11.52;;
72085;SDS011;64750;52.134;5.424;2023-08-06T06:19:45;12.73;;;11.43;;
72085;SDS011;64750;52.134;5.424;2023-08-06T06:22:12;11.68;;;10.50;;
72085;SDS011;64750;52.134;5.424;2023-08-06T06:24:39;11.73;;;10.63;;
72085;SDS011;64750;52.134;5.424;2023-08-06T06:27:06;12.00;;;10.80;;
72085;SDS011;64750;52.134;5.424;2023-08-06T06:29:32;15.35;;;11.93;;
72085;SDS011;64750;52.134;5.424;2023-08-06T06:31:59;14.03;;;10.83;;
72085;SDS011;64750;52.134;5.424;2023-08-06T06:34:25;11.75;;;10.68;;
72085;SDS011;64750;52.134;5.424;2023-08-06T06:36:52;11.55;;;10.40;;
72085;SDS011;64750;52.134;5.424;2023-08-06T06:39:18;14.63;;;11.05;;
72085;SDS011;64750;52.134;5.424;2023-08-06T06:41:45;11.63;;;10.43;;
72085;SDS011;64750;52.134;5.424;2023-08-06T06:44:11;14.67;;;11.23;;
72085;SDS011;64750;52.134;5.424;2023-08-06T06:46:39;11.00;;;10.02;;
72085;SDS011;64750;52.134;5.424;2023-08-06T06:49:05;12.82;;;11.38;;
72085;SDS011;64750;52.134;5.424;2023-08-06T06:51:32;11.15;;;10.05;;
72085;SDS011;64750;52.134;5.424;2023-08-06T06:53:59;11.18;;;10.18;;
72085;SDS011;64750;52.134;5.424;2023-08-06T06:56:25;10.53;;;8.83;;
72085;SDS011;64750;52.134;5.424;2023-08-06T06:58:51;10.38;;;9.30;;
72085;SDS011;64750;52.134;5.424;2023-08-06T07:01:18;9.90;;;8.95;;
72085;SDS011;64750;52.134;5.424;2023-08-06T07:03:44;14.77;;;9.70;;
72085;SDS011;64750;52.134;5.424;2023-08-06T07:06:11;10.40;;;9.63;;
72085;SDS011;64750;52.134;5.424;2023-08-06T07:08:38;10.77;;;9.77;;
72085;SDS011;64750;52.134;5.424;2023-08-06T07:11:05;12.52;;;9.95;;
72085;SDS011;64750;52.134;5.424;2023-08-06T07:13:33;9.85;;;8.95;;
72085;SDS011;64750;52.134;5.424;2023-08-06T07:16:00;11.65;;;10.55;;
72085;SDS011;64750;52.134;5.424;2023-08-06T07:18:27;11.07;;;9.98;;
72085;SDS011;64750;52.134;5.424;2023-08-06T07:20:54;10.83;;;9.83;;
72085;SDS011;64750;52.134;5.424;2023-08-06T07:23:21;10.30;;;9.40;;
72085;SDS011;64750;52.134;5.424;2023-08-06T07:25:50;13.18;;;10.43;;
72085;SDS011;64750;52.134;5.424;2023-08-06T07:28:17;10.93;;;9.93;;
72085;SDS011;64750;52.134;5.424;2023-08-06T07:30:44;12.30;;;10.25;;
72085;SDS011;64750;52.134;5.424;2023-08-06T07:33:11;10.90;;;9.90;;
72085;SDS011;64750;52.134;5.424;2023-08-06T07:35:38;10.95;;;10.05;;
72085;SDS011;64750;52.134;5.424;2023-08-06T07:38:04;13.77;;;10.07;;
72085;SDS011;64750;52.134;5.424;2023-08-06T07:40:31;11.18;;;10.18;;
72085;SDS011;64750;52.134;5.424;2023-08-06T07:42:58;11.48;;;10.30;;
72085;SDS011;64750;52.134;5.424;2023-08-06T07:45:24;10.70;;;9.80;;
72085;SDS011;64750;52.134;5.424;2023-08-06T07:47:52;11.63;;;10.00;;
72085;SDS011;64750;52.134;5.424;2023-08-06T07:50:19;11.43;;;9.85;;
72085;SDS011;64750;52.134;5.424;2023-08-06T07:52:46;11.35;;;10.25;;
72085;SDS011;64750;52.134;5.424;2023-08-06T07:55:12;10.82;;;9.85;;
72085;SDS011;64750;52.134;5.424;2023-08-06T07:57:39;10.20;;;9.20;;
72085;SDS011;64750;52.134;5.424;2023-08-06T08:00:05;10.43;;;9.38;;
72085;SDS011;64750;52.134;5.424;2023-08-06T08:02:32;11.77;;;10.25;;
72085;SDS011;64750;52.134;5.424;2023-08-06T08:04:59;10.73;;;9.65;;
72085;SDS011;64750;52.134;5.424;2023-08-06T08:07:25;13.07;;;10.05;;
72085;SDS011;64750;52.134;5.424;2023-08-06T08:09:54;9.87;;;8.53;;
72085;SDS011;64750;52.134;5.424;2023-08-06T08:12:20;10.73;;;9.63;;
72085;SDS011;64750;52.134;5.424;2023-08-06T08:14:47;9.95;;;9.02;;
72085;SDS011;64750;52.134;5.424;2023-08-06T08:17:13;10.45;;;9.45;;
72085;SDS011;64750;52.134;5.424;2023-08-06T08:19:40;9.48;;;8.68;;
72085;SDS011;64750;52.134;5.424;2023-08-06T08:22:07;5.50;;;5.07;;
72085;SDS011;64750;52.134;5.424;2023-08-06T08:24:34;4.85;;;4.45;;
72085;SDS011;64750;52.134;5.424;2023-08-06T08:27:00;4.80;;;4.13;;
72085;SDS011;64750;52.134;5.424;2023-08-06T08:29:27;3.90;;;3.60;;
72085;SDS011;64750;52.134;5.424;2023-08-06T08:31:53;3.58;;;3.38;;
72085;SDS011;64750;52.134;5.424;2023-08-06T08:34:20;3.20;;;3.00;;
72085;SDS011;64750;52.134;5.424;2023-08-06T08:36:47;3.10;;;2.90;;
72085;SDS011;64750;52.134;5.424;2023-08-06T08:39:13;3.50;;;1.98;;
72085;SDS011;64750;52.134;5.424;2023-08-06T08:41:40;1.73;;;1.63;;
72085;SDS011;64750;52.134;5.424;2023-08-06T08:44:08;1.52;;;1.42;;
72085;SDS011;64750;52.134;5.424;2023-08-06T08:46:40;1.30;;;1.20;;
72085;SDS011;64750;52.134;5.424;2023-08-06T08:49:07;1.30;;;1.20;;
72085;SDS011;64750;52.134;5.424;2023-08-06T08:51:34;1.52;;;1.05;;
72085;SDS011;64750;52.134;5.424;2023-08-06T08:54:02;1.27;;;0.90;;
72085;SDS011;64750;52.134;5.424;2023-08-06T08:56:30;1.10;;;1.00;;
72085;SDS011;64750;52.134;5.424;2023-08-06T08:58:57;1.40;;;1.30;;
72085;SDS011;64750;52.134;5.424;2023-08-06T09:01:25;0.80;;;0.80;;
72085;SDS011;64750;52.134;5.424;2023-08-06T09:03:53;2.83;;;1.25;;
72085;SDS011;64750;52.134;5.424;2023-08-06T09:06:21;0.95;;;0.95;;
72085;SDS011;64750;52.134;5.424;2023-08-06T09:08:51;0.85;;;0.85;;
72085;SDS011;64750;52.134;5.424;2023-08-06T09:11:28;2.50;;;1.37;;
72085;SDS011;64750;52.134;5.424;2023-08-06T09:14:02;3.08;;;1.35;;
72085;SDS011;64750;52.134;5.424;2023-08-06T09:16:28;6.40;;;1.25;;
72085;SDS011;64750;52.134;5.424;2023-08-06T09:18:55;1.38;;;1.27;;
72085;SDS011;64750;52.134;5.424;2023-08-06T09:21:33;3.45;;;1.63;;
72085;SDS011;64750;52.134;5.424;2023-08-06T09:24:12;2.03;;;1.83;;
72085;SDS011;64750;52.134;5.424;2023-08-06T09:26:39;1.95;;;1.50;;
72085;SDS011;64750;52.134;5.424;2023-08-06T09:29:08;3.63;;;1.55;;
72085;SDS011;64750;52.134;5.424;2023-08-06T09:34:17;1.92;;;1.73;;
72085;SDS011;64750;52.134;5.424;2023-08-06T09:36:49;1.80;;;1.70;;
72085;SDS011;64750;52.134;5.424;2023-08-06T09:39:17;1.83;;;1.73;;
72085;SDS011;64750;52.134;5.424;2023-08-06T09:41:46;1.88;;;1.70;;
72085;SDS011;64750;52.134;5.424;2023-08-06T09:44:17;2.50;;;1.67;;
72085;SDS011;64750;52.134;5.424;2023-08-06T09:46:47;2.20;;;2.08;;
72085;SDS011;64750;52.134;5.424;2023-08-06T09:49:16;2.30;;;2.10;;
72085;SDS011;64750;52.134;5.424;2023-08-06T09:51:46;2.22;;;2.05;;
72085;SDS011;64750;52.134;5.424;2023-08-06T09:54:17;2.20;;;2.00;;
72085;SDS011;64750;52.134;5.424;2023-08-06T09:56:53;2.25;;;2.13;;
72085;SDS011;64750;52.134;5.424;2023-08-06T09:59:21;4.03;;;2.13;;
72085;SDS011;64750;52.134;5.424;2023-08-06T10:01:49;2.80;;;2.60;;
72085;SDS011;64750;52.134;5.424;2023-08-06T10:04:15;3.55;;;2.40;;
72085;SDS011;64750;52.134;5.424;2023-08-06T10:06:49;3.03;;;2.72;;
72085;SDS011;64750;52.134;5.424;2023-08-06T10:09:16;3.25;;;2.60;;
72085;SDS011;64750;52.134;5.424;2023-08-06T10:11:44;3.08;;;2.80;;
72085;SDS011;64750;52.134;5.424;2023-08-06T10:14:19;3.70;;;2.87;;
72085;SDS011;64750;52.134;5.424;2023-08-06T10:16:49;3.60;;;3.30;;
72085;SDS011;64750;52.134;5.424;2023-08-06T10:19:16;3.10;;;2.88;;
72085;SDS011;64750;52.134;5.424;2023-08-06T10:24:49;3.33;;;3.03;;
72085;SDS011;64750;52.134;5.424;2023-08-06T10:27:32;3.30;;;3.00;;
72085;SDS011;64750;52.134;5.424;2023-08-06T10:32:52;3.33;;;2.80;;
72085;SDS011;64750;52.134;5.424;2023-08-06T10:35:45;3.05;;;2.85;;
72085;SDS011;64750;52.134;5.424;2023-08-06T10:38:11;4.22;;;3.20;;
72085;SDS011;64750;52.134;5.424;2023-08-06T10:40:42;8.27;;;2.93;;
72085;SDS011;64750;52.134;5.424;2023-08-06T10:43:32;5.57;;;3.50;;
72085;SDS011;64750;52.134;5.424;2023-08-06T10:46:09;5.22;;;3.60;;
72085;SDS011;64750;52.134;5.424;2023-08-06T10:48:37;3.63;;;3.20;;
72085;SDS011;64750;52.134;5.424;2023-08-06T10:51:09;3.22;;;2.40;;
72085;SDS011;64750;52.134;5.424;2023-08-06T10:53:37;3.87;;;2.77;;
72085;SDS011;64750;52.134;5.424;2023-08-06T10:58:50;3.63;;;2.72;;
72085;SDS011;64750;52.134;5.424;2023-08-06T11:01:17;3.10;;;2.28;;
72085;SDS011;64750;52.134;5.424;2023-08-06T11:03:45;2.65;;;2.10;;
72085;SDS011;64750;52.134;5.424;2023-08-06T11:06:16;2.30;;;2.10;;
72085;SDS011;64750;52.134;5.424;2023-08-06T11:08:49;1.90;;;1.80;;
72085;SDS011;64750;52.134;5.424;2023-08-06T11:11:17;2.55;;;2.03;;
72085;SDS011;64750;52.134;5.424;2023-08-06T11:13:45;3.97;;;2.33;;
72085;SDS011;64750;52.134;5.424;2023-08-06T11:16:19;3.08;;;1.50;;
72085;SDS011;64750;52.134;5.424;2023-08-06T11:18:53;2.70;;;1.80;;
72085;SDS011;64750;52.134;5.424;2023-08-06T11:21:21;2.92;;;1.80;;
72085;SDS011;64750;52.134;5.424;2023-08-06T11:23:48;1.95;;;1.75;;
72085;SDS011;64750;52.134;5.424;2023-08-06T11:26:18;1.75;;;1.52;;
72085;SDS011;64750;52.134;5.424;2023-08-06T11:28:46;1.70;;;1.60;;
72085;SDS011;64750;52.134;5.424;2023-08-06T11:31:22;1.60;;;1.50;;
72085;SDS011;64750;52.134;5.424;2023-08-06T11:33:53;1.95;;;1.42;;
72085;SDS011;64750;52.134;5.424;2023-08-06T11:36:33;1.90;;;1.60;;
72085;SDS011;64750;52.134;5.424;2023-08-06T11:39:00;2.08;;;1.55;;
72085;SDS011;64750;52.134;5.424;2023-08-06T11:41:28;3.25;;;1.30;;
72085;SDS011;64750;52.134;5.424;2023-08-06T11:43:55;5.10;;;1.37;;
72085;SDS011;64750;52.134;5.424;2023-08-06T11:46:22;2.67;;;1.20;;
72085;SDS011;64750;52.134;5.424;2023-08-06T11:48:56;1.85;;;1.27;;
72085;SDS011;64750;52.134;5.424;2023-08-06T11:51:24;3.25;;;1.30;;
72085;SDS011;64750;52.134;5.424;2023-08-06T11:53:57;3.20;;;1.40;;
72085;SDS011;64750;52.134;5.424;2023-08-06T11:56:25;2.73;;;1.60;;
72085;SDS011;64750;52.134;5.424;2023-08-06T11:58:54;2.72;;;1.55;;
72085;SDS011;64750;52.134;5.424;2023-08-06T12:01:20;1.77;;;1.42;;
72085;SDS011;64750;52.134;5.424;2023-08-06T12:03:47;2.13;;;1.50;;
72085;SDS011;64750;52.134;5.424;2023-08-06T12:06:14;2.28;;;1.20;;
72085;SDS011;64750;52.134;5.424;2023-08-06T12:08:40;2.70;;;1.33;;
72085;SDS011;64750;52.134;5.424;2023-08-06T12:11:08;2.42;;;1.10;;
72085;SDS011;64750;52.134;5.424;2023-08-06T12:13:35;1.55;;;1.15;;
72085;SDS011;64750;52.134;5.424;2023-08-06T12:16:01;2.13;;;1.30;;
72085;SDS011;64750;52.134;5.424;2023-08-06T12:18:28;2.05;;;1.10;;
72085;SDS011;64750;52.134;5.424;2023-08-06T12:20:54;1.27;;;1.00;;
72085;SDS011;64750;52.134;5.424;2023-08-06T12:23:21;4.13;;;0.98;;
72085;SDS011;64750;52.134;5.424;2023-08-06T12:25:47;1.08;;;0.80;;
72085;SDS011;64750;52.134;5.424;2023-08-06T12:28:14;1.27;;;1.05;;
72085;SDS011;64750;52.134;5.424;2023-08-06T12:30:40;0.98;;;0.90;;
72085;SDS011;64750;52.134;5.424;2023-08-06T12:33:09;3.03;;;1.00;;
72085;SDS011;64750;52.134;5.424;2023-08-06T12:35:35;2.03;;;0.77;;
72085;SDS011;64750;52.134;5.424;2023-08-06T12:38:03;2.10;;;0.80;;
72085;SDS011;64750;52.134;5.424;2023-08-06T12:40:30;4.85;;;1.20;;
72085;SDS011;64750;52.134;5.424;2023-08-06T12:43:03;1.75;;;0.70;;
72085;SDS011;64750;52.134;5.424;2023-08-06T12:45:30;2.40;;;1.00;;
72085;SDS011;64750;52.134;5.424;2023-08-06T12:47:56;2.30;;;1.20;;
72085;SDS011;64750;52.134;5.424;2023-08-06T12:50:23;3.08;;;0.85;;
72085;SDS011;64750;52.134;5.424;2023-08-06T12:52:50;1.92;;;1.40;;
72085;SDS011;64750;52.134;5.424;2023-08-06T12:55:16;1.52;;;0.80;;
72085;SDS011;64750;52.134;5.424;2023-08-06T12:57:43;1.17;;;0.97;;
72085;SDS011;64750;52.134;5.424;2023-08-06T13:00:24;1.00;;;0.80;;
72085;SDS011;64750;52.134;5.424;2023-08-06T13:02:54;1.65;;;1.10;;
72085;SDS011;64750;52.134;5.424;2023-08-06T13:05:20;1.00;;;0.85;;
72085;SDS011;64750;52.134;5.424;2023-08-06T13:07:47;1.30;;;1.08;;
72085;SDS011;64750;52.134;5.424;2023-08-06T13:10:13;2.20;;;1.30;;
72085;SDS011;64750;52.134;5.424;2023-08-06T13:12:40;1.27;;;1.00;;
72085;SDS011;64750;52.134;5.424;2023-08-06T13:15:07;1.15;;;1.00;;
72085;SDS011;64750;52.134;5.424;2023-08-06T13:17:34;2.63;;;1.77;;
72085;SDS011;64750;52.134;5.424;2023-08-06T13:20:00;1.50;;;1.23;;
72085;SDS011;64750;52.134;5.424;2023-08-06T13:22:27;2.17;;;1.20;;
72085;SDS011;64750;52.134;5.424;2023-08-06T13:24:54;1.83;;;1.52;;
72085;SDS011;64750;52.134;5.424;2023-08-06T13:27:20;3.35;;;1.38;;
72085;SDS011;64750;52.134;5.424;2023-08-06T13:29:46;2.50;;;1.23;;
72085;SDS011;64750;52.134;5.424;2023-08-06T13:32:13;1.15;;;0.93;;
72085;SDS011;64750;52.134;5.424;2023-08-06T13:34:40;1.67;;;1.37;;
72085;SDS011;64750;52.134;5.424;2023-08-06T13:37:06;1.33;;;1.23;;
72085;SDS011;64750;52.134;5.424;2023-08-06T13:39:33;2.08;;;1.50;;
72085;SDS011;64750;52.134;5.424;2023-08-06T13:41:59;2.15;;;1.30;;
72085;SDS011;64750;52.134;5.424;2023-08-06T13:44:25;2.35;;;1.65;;
72085;SDS011;64750;52.134;5.424;2023-08-06T13:46:52;1.50;;;1.00;;
72085;SDS011;64750;52.134;5.424;2023-08-06T13:49:19;1.65;;;1.30;;
72085;SDS011;64750;52.134;5.424;2023-08-06T13:51:46;3.95;;;1.27;;
72085;SDS011;64750;52.134;5.424;2023-08-06T13:54:12;2.80;;;1.50;;
72085;SDS011;64750;52.134;5.424;2023-08-06T13:56:38;1.23;;;1.10;;
72085;SDS011;64750;52.134;5.424;2023-08-06T13:59:05;4.10;;;1.50;;
72085;SDS011;64750;52.134;5.424;2023-08-06T14:01:32;2.67;;;1.20;;
72085;SDS011;64750;52.134;5.424;2023-08-06T14:04:01;2.75;;;1.50;;
72085;SDS011;64750;52.134;5.424;2023-08-06T14:06:28;1.95;;;1.15;;
72085;SDS011;64750;52.134;5.424;2023-08-06T14:08:54;1.15;;;1.02;;
72085;SDS011;64750;52.134;5.424;2023-08-06T14:11:21;1.60;;;1.40;;
72085;SDS011;64750;52.134;5.424;2023-08-06T14:13:47;1.35;;;1.25;;
72085;SDS011;64750;52.134;5.424;2023-08-06T14:16:15;1.17;;;1.08;;
72085;SDS011;64750;52.134;5.424;2023-08-06T14:18:41;5.25;;;1.52;;
72085;SDS011;64750;52.134;5.424;2023-08-06T14:21:08;3.05;;;1.70;;
72085;SDS011;64750;52.134;5.424;2023-08-06T14:23:34;1.50;;;1.10;;
72085;SDS011;64750;52.134;5.424;2023-08-06T14:26:01;2.72;;;1.27;;
72085;SDS011;64750;52.134;5.424;2023-08-06T14:28:27;2.33;;;1.63;;
72085;SDS011;64750;52.134;5.424;2023-08-06T14:30:53;1.80;;;1.70;;
72085;SDS011;64750;52.134;5.424;2023-08-06T14:33:23;1.20;;;1.10;;
72085;SDS011;64750;52.134;5.424;2023-08-06T14:35:53;3.37;;;1.80;;
72085;SDS011;64750;52.134;5.424;2023-08-06T14:38:19;4.05;;;1.40;;
72085;SDS011;64750;52.134;5.424;2023-08-06T14:40:45;2.55;;;1.40;;
72085;SDS011;64750;52.134;5.424;2023-08-06T14:43:12;2.45;;;1.70;;
72085;SDS011;64750;52.134;5.424;2023-08-06T14:45:41;1.65;;;1.55;;
72085;SDS011;64750;52.134;5.424;2023-08-06T14:48:07;2.53;;;1.33;;
72085;SDS011;64750;52.134;5.424;2023-08-06T14:50:34;2.90;;;1.52;;
72085;SDS011;64750;52.134;5.424;2023-08-06T14:53:01;1.98;;;1.45;;
72085;SDS011;64750;52.134;5.424;2023-08-06T14:55:30;3.05;;;1.48;;
72085;SDS011;64750;52.134;5.424;2023-08-06T14:57:58;1.55;;;1.38;;
72085;SDS011;64750;52.134;5.424;2023-08-06T15:00:25;3.73;;;1.60;;
72085;SDS011;64750;52.134;5.424;2023-08-06T15:02:51;1.95;;;1.20;;